Aktuální počasí v Česku a ve světě - METAR

Seznam meteostanic umístěných nejčasteji na letišti v ČR a ve světě

Vyhledat místa podle abecedy:
A B C D E F G H I J K L M N O P Q R S T U V W X Y Z

Filtrovat:

ID stanice:
a/nebo
Název místa (fulltext):
 
Místo (ID)Naposledy načteno 
Holešov (Holesov) 12.08.2020 14:00 UTC Zobrazit data
Místo: Holešov
Teplota: 30 °C (pocitová: 32.7 °C)
Vítr: 3 m/s z(e) 40°
Počasí: skorojasno
Dohlednost: 50 km
Zákl. oblačnosti: 1/8 1800 m
Vlhkost: 40%
Hamburg (EDDH) 12.08.2020 13:50 UTC Zobrazit METAR
EDDH 121350Z 08010KT 050V120 CAVOK 32/14 Q1017 NOSIG
Hannover (EDDV) 12.08.2020 13:50 UTC Zobrazit METAR
EDDV 121350Z 11009KT 060V190 CAVOK 33/13 Q1016 NOSIG
Hanoi (VVNB) 12.08.2020 14:00 UTC Zobrazit METAR
VVNB 121400Z 13009KT CAVOK 30/25 Q1006 NOSIG
Harare (FVHA) 13.09.2018 03:00 UTC Zobrazit METAR
FVHA 130300Z 07008KT CAVOK 14/07 Q1022 NOSIG
Havana (MUHA) 12.08.2020 13:55 UTC Zobrazit METAR
MUHA 121355Z 09007KT 9000 FEW020 29/24 Q1016
Helsinki (EFHK) 12.08.2020 13:50 UTC Zobrazit METAR
EFHK 121350Z 05003KT 010V080 9999 FEW046 18/08 Q1022 NOSIG
Hong Kong (VHHH) 12.08.2020 14:00 UTC Zobrazit METAR
VHHH 121400Z 10006KT 040V140 9999 FEW012 SCT025 28/24 Q1013 NOSIG
Honiara (AGGH) 12.08.2020 14:00 UTC Zobrazit METAR
AGGH 121400Z 11003KT 9999 FEW015 SCT300 24/23 Q1011
Horta (LPHR) 12.08.2020 14:00 UTC Zobrazit METAR
LPHR 121400Z 20006KT 170V240 9999 FEW020 SCT035 23/17 Q1027
Reklama

Počasí na Váš email

Emaily jsou bez reklamy a bez spamu



Odhlásit newsletter




Další české internetové stránky (nejen) o počasí najdete v katalogu TOPlist - weby o počasí nebo vyhledejte na internetu, co jste tu na 🌞 Slunečnu ⛅ zatím nenašli:
⭐ Přidat Slunečno.cz do oblíbených | 🏠 Nastavit Slunečno.cz jako HOMEPAGE

⬆️ Posunout stránku nahoru ⬆️
Reklama